Latest Coastal Weather Observations for Flinders Island Airport

IDV60701

Issued at 1:12 am EST Thursday 3 September 2026 (issued every 10 minutes, with the page automatically refreshed every 10 minutes)

About coastal observations | Map of coastal stations | Coastal observations for VIC | Marine services | Other Formats
Station Details ID: 099005 Name: FLINDERS ISLAND AIRPORT Lat: -40.09 Lon: 148.00 Height: 9.0 m
Data from the previous 72 hours. | See also: Recent months at Flinders Island Airport
Date/Time
EST
Wind Sea
Height
m
Swell Vis
km
Cloud Weather Temp
°C
Press
MSL
hPa
Rain since
9am
mm
Dir  Spd
kts
Gust
kts
Height
m
Period
s
Dir
03/01:00am NW 14 18 - - - - 10 Partly cloudy - 12.8 1006.3 0.0
03/12:30am NNW 11 15 - - - - 10 Partly cloudy - 12.3 1006.4 0.0
03/12:00am NW 13 18 - - - - 10 Partly cloudy - 12.4 1006.6 0.0
 
Date/Time
EST
Wind Sea
Height
m
Swell Vis
km
Cloud Weather Temp
°C
Press
MSL
hPa
Rain since
9am
mm
Dir  Spd
kts
Gust
kts
Height
m
Period
s
Dir
02/11:30pm WNW 13 18 - - - - 10 Cloudy - 12.5 1007.3 0.0
02/11:00pm WNW 13 18 - - - - 10 Cloudy - 12.8 1007.8 0.0
02/10:30pm NW 11 15 - - - - 10 Cloudy - 12.6 1008.2 0.0
02/10:00pm WNW 11 15 - - - - 10 Cloudy - 12.7 1008.6 0.0
02/09:30pm WNW 12 16 - - - - 10 Partly cloudy - 12.5 1008.8 0.0
02/09:00pm WNW 15 18 - - - - 10 - - 12.2 1009.0 0.0
02/08:30pm WNW 14 19 - - - - 10 - - 12.1 1009.0 0.0
02/08:00pm WNW 15 20 - - - - 10 Partly cloudy - 12.1 1009.1 0.0
02/07:30pm WNW 16 22 - - - - 10 Mostly clear - 12.1 1009.0 0.0
02/07:00pm WNW 17 23 - - - - 10 Mostly clear - 12.1 1009.1 0.0
02/06:30pm WNW 16 21 - - - - 10 Mostly clear - 12.1 1009.1 0.0
02/06:00pm WNW 17 22 - - - - 10 Mostly cloudy - 12.1 1009.1 0.0
02/05:30pm WNW 18 26 - - - - 10 Mostly clear - 12.3 1009.3 0.0
02/05:00pm WNW 19 24 - - - - 10 Mostly clear - 12.9 1009.2 0.0
02/04:30pm WNW 19 26 - - - - 10 Mostly clear - 13.4 1009.2 0.0
02/04:00pm WNW 17 23 - - - - 10 Mostly clear - 13.7 1009.2 0.0
02/03:30pm WNW 18 24 - - - - 10 Partly cloudy - 14.0 1009.2 0.0
02/03:00pm WNW 18 24 - - - - 10 Mostly clear - 14.1 1009.3 0.0
02/02:30pm WNW 21 28 - - - - 10 Mostly clear - 14.4 1009.4 0.0
02/02:00pm WNW 19 26 - - - - 10 Mostly clear - 14.3 1009.7 0.0
02/01:30pm WNW 20 27 - - - - 10 Cloudy - 13.8 1009.9 0.0
02/01:00pm W 19 27 - - - - 10 Cloudy - 14.4 1010.0 0.0
02/12:30pm W 21 27 - - - - 10 Mostly clear - 14.2 1010.3 0.0
02/12:00pm W 20 25 - - - - 10 Cloudy - 14.2 1010.5 0.0
02/11:30am W 19 26 - - - - 10 Cloudy - 13.9 1010.9 0.0
02/11:00am W 20 26 - - - - 10 Mostly clear - 14.3 1011.2 0.0
02/10:30am W 19 25 - - - - 10 Mostly clear - 14.0 1011.2 0.0
02/10:02am W 21 28 - - - - 10 Partly cloudy - 12.8 1011.2 0.0
02/10:00am W 22 31 - - - - 10 Partly cloudy - 12.8 1011.2 0.0
02/09:49am WNW 19 32 - - - - 10 Mostly clear - 13.4 1011.2 0.0
02/09:30am W 19 25 - - - - 10 Partly cloudy - 13.8 1011.2 0.0
02/09:00am W 20 25 - - - - 10 Mostly clear - 13.3 1011.3 0.2
02/08:30am W 21 26 - - - - 10 Mostly clear - 12.8 1011.3 0.2
02/08:00am W 20 25 - - - - 10 Partly cloudy - 12.8 1011.2 0.2
02/07:30am W 20 26 - - - - 10 Partly cloudy - 12.3 1010.8 0.2
02/07:00am W 22 25 - - - - 10 Mostly clear - 11.8 1010.3 0.2
02/06:30am W 22 27 - - - - 10 Cloudy - 11.8 1010.1 0.2
02/06:00am W 19 23 - - - - 10 Cloudy - 11.9 1009.9 0.2
02/05:30am WSW 19 22 - - - - 10 Partly cloudy - 12.1 1009.6 0.2
02/05:00am W 19 23 - - - - 10 Partly cloudy - 12.3 1009.2 0.2
02/04:30am W 20 25 - - - - 10 Partly cloudy - 12.5 1008.9 0.2
02/04:09am W 18 22 - - - - 10 Mostly clear - 12.5 1008.5 0.2
02/04:00am W 18 21 - - - - 10 Partly cloudy - 12.5 1008.6 0.2
02/03:30am W 13 18 - - - - 10 Partly cloudy - 12.9 1008.3 0.2
02/03:29am W 13 18 - - - - 10 Partly cloudy - 12.9 1008.3 0.2
02/03:00am W 15 19 - - - - 10 Cloudy - 13.2 1008.4 0.2
02/02:56am W 16 20 - - - - 10 Mostly clear - 13.2 1008.3 0.2
02/02:30am WNW 18 25 - - - - 10 Cloudy - 13.8 1008.4 0.2
02/02:00am WNW 18 26 - - - - 10 Cloudy - 14.0 1008.2 0.2
02/01:43am WNW 20 28 - - - - 10 Cloudy - 14.0 1008.3 0.2
02/01:33am WNW 17 27 - - - - 10 Cloudy - 14.0 1008.3 0.2
02/01:30am WNW 17 23 - - - - 10 Cloudy - 14.0 1008.3 0.2
02/01:08am WNW 20 26 - - - - 10 Partly cloudy - 14.0 1008.1 0.2
02/01:01am NW 21 28 - - - - 10 Partly cloudy - 14.1 1008.1 0.2
02/01:00am WNW 21 28 - - - - 10 Partly cloudy - 14.1 1008.1 0.2
02/12:49am WNW 21 28 - - - - 10 Partly cloudy - 14.1 1008.1 0.2
02/12:32am WNW 21 29 - - - - 10 Partly cloudy - 14.5 1008.3 0.2
02/12:30am WNW 20 29 - - - - 10 Partly cloudy - 14.6 1008.3 0.2
02/12:28am NW 19 29 - - - - 10 Partly cloudy - 14.7 1008.3 0.2
02/12:00am NW 17 22 - - - - 10 Cloudy Rain 14.6 1008.4 0.2
 
Date/Time
EST
Wind Sea
Height
m
Swell Vis
km
Cloud Weather Temp
°C
Press
MSL
hPa
Rain since
9am
mm
Dir  Spd
kts
Gust
kts
Height
m
Period
s
Dir
01/11:30pm NW 14 18 - - - - 10 Mostly clear - 13.9 1008.3 0.2
01/11:00pm WNW 14 19 - - - - 10 Mostly clear - 13.9 1008.8 0.2
01/10:30pm NW 15 20 - - - - 10 Mostly clear - 14.4 1009.3 0.0
01/10:00pm NW 12 15 - - - - 10 Partly cloudy - 14.9 1009.5 0.0
01/09:30pm WNW 12 16 - - - - 10 Partly cloudy - 15.4 1009.5 0.0
01/09:00pm NW 12 16 - - - - 10 Cloudy - 15.8 1009.8 0.0
01/08:30pm NW 15 20 - - - - 10 Mostly clear - 16.5 1009.9 0.0
01/08:11pm NW 16 20 - - - - 10 Mostly clear - 16.4 1009.9 0.0
01/08:00pm NW 20 31 - - - - 10 Partly cloudy - 16.9 1010.0 0.0
01/07:50pm NW 20 33 - - - - 10 Partly cloudy - 17.9 1010.0 0.0
01/07:30pm NW 20 27 - - - - 10 Partly cloudy - 18.0 1009.9 0.0
01/07:02pm NNW 19 27 - - - - 10 - - 18.0 1010.0 0.0
01/07:00pm NNW 18 24 - - - - 10 - - 17.8 1010.0 0.0
01/06:43pm NNW 18 29 - - - - 10 - - 17.7 1010.1 0.0
01/06:30pm NNW 18 26 - - - - 10 Mostly clear - 17.5 1010.0 0.0
01/06:00pm NW 18 23 - - - - 10 Cloudy - 17.3 1010.0 0.0
01/05:30pm NNW 15 22 - - - - 10 Mostly clear - 17.2 1010.0 0.0
01/05:00pm NNW 17 22 - - - - 10 - - 17.3 1010.1 0.0
01/04:30pm NNW 15 22 - - - - 10 - - 17.5 1010.3 0.0
01/04:00pm NNW 13 20 - - - - 10 - - 17.7 1010.6 0.0
01/03:30pm NNW 12 18 - - - - 10 - - 18.1 1011.1 0.0
01/03:00pm NNW 16 22 - - - - 10 - - 18.4 1011.5 0.0
01/02:30pm NNW 14 20 - - - - 10 - - 18.5 1011.7 0.0
01/02:27pm NNW 14 20 - - - - 10 - - 18.4 1011.7 0.0
01/02:16pm NNW 16 26 - - - - 10 - - 18.6 1011.9 0.0
01/02:00pm NNW 17 24 - - - - 10 - - 18.2 1012.3 0.0
01/01:30pm NW 18 23 - - - - 10 - - 19.3 1013.0 0.0
01/01:00pm NW 20 27 - - - - 10 - - 18.4 1013.7 0.0
01/12:30pm NW 21 28 - - - - 10 - - 18.6 1014.7 0.0
01/12:00pm NW 22 28 - - - - 10 - - 18.5 1015.3 0.0
01/11:30am NW 22 29 - - - - 10 - - 18.7 1016.0 0.0
01/11:00am NW 20 28 - - - - 10 - - 18.2 1016.5 0.0
01/10:30am NW 15 20 - - - - 10 - - 18.1 1017.1 0.0
01/10:00am NW 12 18 - - - - 10 - - 17.6 1017.6 0.0
01/09:30am NNW 10 16 - - - - 10 - - 16.3 1018.1 0.0
01/09:00am NNW 11 17 - - - - 10 - - 15.4 1018.6 0.0
01/08:30am NNW 13 17 - - - - 10 - - 15.0 1018.8 0.0
01/08:00am N 6 13 - - - - 10 - - 13.3 1019.2 0.0
01/07:59am N 6 13 - - - - 10 - - 13.1 1019.2 0.0
01/07:30am NE 5 7 - - - - 10 - - 8.1 1019.5 0.0
01/07:00am ENE 5 6 - - - - 10 - - 4.2 1019.7 0.0
01/06:30am NE 4 6 - - - - 10 - - 4.0 1020.0 0.0
01/06:00am CALM 0 2 - - - - 10 - - 3.4 1020.1 0.0
01/05:30am ENE 5 6 - - - - 10 - - 3.1 1020.1 0.0
01/05:00am NE 4 5 - - - - 10 - - 4.5 1020.7 0.0
01/04:30am NE 6 7 - - - - 10 - - 5.2 1021.0 0.0
01/04:00am NW 7 8 - - - - 10 Mostly clear - 7.2 1021.4 0.0
01/03:59am NW 7 8 - - - - 10 Mostly clear - 7.8 1021.4 0.0
01/03:30am NNW 6 7 - - - - 10 Cloudy - 10.1 1021.7 0.0
01/03:00am NNW 7 9 - - - - 10 Mostly cloudy - 10.3 1022.0 0.0
01/02:41am NW 7 9 - - - - 10 Partly cloudy - 10.1 1022.2 0.0
01/02:30am NW 6 7 - - - - 10 Mostly clear - 10.0 1022.5 0.0
01/02:16am NNW 7 8 - - - - 10 Mostly clear - 10.0 1022.8 0.0
01/02:00am NW 9 12 - - - - 10 Partly cloudy - 10.5 1023.2 0.0
01/01:30am NW 6 10 - - - - 10 Cloudy - 10.3 1023.7 0.0
01/01:00am NW 6 8 - - - - 10 Partly cloudy - 10.1 1023.9 0.0
01/12:30am NW 11 14 - - - - 10 Cloudy - 10.6 1024.3 0.0
01/12:00am WNW 9 12 - - - - 10 Cloudy - 10.8 1024.6 0.0
 
Date/Time
EST
Wind Sea
Height
m
Swell Vis
km
Cloud Weather Temp
°C
Press
MSL
hPa
Rain since
9am
mm
Dir  Spd
kts
Gust
kts
Height
m
Period
s
Dir
31/11:30pm W 8 11 - - - - 10 Cloudy - 10.9 1024.9 0.0
31/11:00pm WNW 10 14 - - - - 10 Cloudy - 10.8 1025.2 0.0
31/10:30pm WNW 7 10 - - - - 10 Cloudy - 10.9 1025.7 0.0
31/10:00pm WNW 9 12 - - - - 10 Cloudy - 10.8 1026.1 0.0
31/09:30pm WNW 10 12 - - - - 10 Cloudy - 10.9 1026.0 0.0
31/09:00pm W 10 12 - - - - 10 Mostly cloudy - 10.9 1026.1 0.0
31/08:30pm WNW 10 14 - - - - 10 Cloudy - 10.9 1026.2 0.0
31/08:00pm W 9 12 - - - - 10 Cloudy - 11.0 1026.4 0.0
31/07:30pm WNW 8 11 - - - - 10 Cloudy - 11.2 1026.6 0.0
31/07:00pm WNW 9 12 - - - - 10 Cloudy - 11.4 1026.7 0.0
31/06:30pm W 9 14 - - - - 10 Cloudy - 11.5 1026.8 0.0
31/06:00pm W 12 15 - - - - 10 Cloudy - 11.4 1026.9 0.0
31/05:30pm W 11 16 - - - - 10 Cloudy - 11.7 1026.9 0.0
31/05:00pm W 13 17 - - - - 10 Cloudy - 11.8 1027.1 0.0
31/04:30pm WNW 13 17 - - - - 10 Cloudy - 12.0 1027.1 0.0
31/04:00pm W 16 20 - - - - 10 Cloudy - 12.5 1027.1 0.0
31/03:30pm WNW 15 18 - - - - 10 Cloudy - 12.7 1027.3 0.0
31/03:00pm WNW 14 18 - - - - 10 Cloudy - 12.8 1027.7 0.0
31/02:30pm WNW 15 18 - - - - 10 Cloudy - 12.9 1027.8 0.0
31/02:00pm W 13 16 - - - - 10 Cloudy - 13.2 1028.0 0.0
31/01:30pm WNW 13 16 - - - - 10 Cloudy - 12.9 1028.3 0.0
31/01:00pm W 13 16 - - - - 10 Cloudy - 12.9 1028.7 0.0
31/12:30pm W 15 19 - - - - 10 Cloudy - 13.4 1028.8 0.0
31/12:00pm WSW 16 18 - - - - 10 Cloudy - 13.4 1029.2 0.0
31/11:58am W 16 18 - - - - 10 Cloudy - 13.4 1029.2 0.0
31/11:33am W 15 19 - - - - 10 Cloudy - 13.7 1029.4 0.0
31/11:30am W 16 19 - - - - 10 Cloudy - 13.3 1029.4 0.0
31/11:00am W 17 20 - - - - 10 Cloudy - 13.3 1029.5 0.0
31/10:30am WSW 15 18 - - - - 10 Cloudy - 12.9 1029.5 0.0
31/10:11am WSW 15 19 - - - - 10 Cloudy - 13.0 1029.5 0.0
31/10:00am W 15 18 - - - - 10 Cloudy - 12.9 1029.6 0.0
31/09:30am WSW 18 21 - - - - 10 Cloudy - 12.6 1029.6 0.0
31/09:00am W 18 22 - - - - 10 Cloudy - 12.6 1029.4 0.0
31/08:30am W 21 26 - - - - 10 Cloudy - 12.2 1029.2 0.0
31/08:00am W 20 26 - - - - 10 Cloudy - 12.1 1029.1 0.0
31/07:30am WSW 21 26 - - - - 10 Cloudy - 11.9 1028.8 0.0
31/07:00am W 19 24 - - - - 10 Cloudy - 11.6 1028.7 0.0
31/06:30am WSW 18 21 - - - - 10 Cloudy - 11.7 1028.6 0.0
31/06:00am W 19 23 - - - - 10 Cloudy - 11.7 1028.6 0.0
31/05:30am W 17 20 - - - - 10 Cloudy - 11.7 1028.6 0.0
31/05:00am W 18 22 - - - - 10 Cloudy - 11.7 1028.4 0.0
31/04:30am W 16 21 - - - - 10 Cloudy - 11.6 1028.5 0.0
31/04:00am W 16 21 - - - - 10 Cloudy - 11.6 1028.5 0.0
31/03:30am W 16 20 - - - - 10 Cloudy - 11.7 1028.3 0.0
31/03:00am W 15 18 - - - - 10 Cloudy - 11.8 1028.6 0.0
31/02:30am WSW 16 20 - - - - 10 Cloudy - 11.9 1028.9 0.0
31/02:00am W 17 20 - - - - 10 Cloudy - 12.0 1029.1 0.0
31/01:30am W 17 20 - - - - 10 Cloudy - 11.9 1029.2 0.0

Other formats

Comma delimited format used in spreadsheet applications
http://www.bom.gov.au/fwo/IDV60701/IDV60701.94980.axf

JavaScript Object Notation format (JSON) in row-major order
http://www.bom.gov.au/fwo/IDV60701/IDV60701.94980.json

Data quality

Most of these data are generated automatically and are frequently updated. Quality checks on data are not normally performed. It is possible for incorrect values to appear. Refer to information at About Latest Weather Observations and please check the disclaimer before using these data.